Station: Blackwater Airport  

  Atmospheric Gas Attenuation - ITU Rec 676-11   ----------------- dB/100km -----------------
Date Time Temp RH % AH g/m3 Dew Point Wind Direction Speed kph Gust kph Barometer mB Rainfall Since 9am 24GHz 47GHz 76GHz 122GHz 134GHz 241GHz
08/05 12:40 21 18 3.3 -4.2 11 13 1019.9 0 8.2 17.0 19.2 49.3 32.5 107.7
08/05 12:30 21 18 3.3 -4.2 17 32 1019.9 0 8.2 17.0 19.2 49.3 32.5 107.7
08/05 12:20 20.5 18 3.2 -4.6 17 22 1020.3 0 8.0 17.0 19.0 48.8 31.7 104.9
08/05 12:10 20.7 18 3.24 -4.4 19 22 1020.5 0 8.1 17.0 19.1 49.0 32.0 106.1
08/05 12:00 20.5 19 3.38 -3.9 17 30 1020.6 0 8.4 17.2 19.5 50.3 33.5 111.2
08/05 11:50 20.8 19 3.44 -3.6 17 26 1021 0 8.5 17.3 19.7 50.6 34.0 112.9
08/05 11:40 20.8 19 3.44 -3.6 20 22 1021 0 8.5 17.3 19.7 50.6 34.0 112.9
08/05 11:30 19.5 20 3.36 -4 20 28 1021.2 0 8.4 17.4 19.7 50.7 33.7 111.9
08/05 11:20 19.6 19 3.21 -4.6 24 30 1021.7 0 8.0 17.2 19.3 49.5 32.2 106.5
08/05 11:10 19.6 19 3.21 -4.6 26 30 1021.7 0 8.0 17.2 19.3 49.5 32.2 106.5
08/05 11:00 18.7 20 3.2 -4.7 24 35 1021.9 0 8.0 17.4 19.5 50.0 32.5 107.3
08/05 10:50 18.5 20 3.16 -4.9 26 28 1022.2 0 8.0 17.4 19.4 49.8 32.1 106.2
08/05 10:40 18.4 20 3.15 -4.9 30 33 1022.3 0 7.9 17.4 19.4 49.8 32.1 106.0
08/05 10:30 18.9 21 3.4 -3.9 20 24 1022.3 0 8.5 17.6 20.0 51.5 34.4 114.2
08/05 10:20 18.7 21 3.36 -4 20 28 1022.3 0 8.4 17.6 19.9 51.3 34.1 113.0
08/05 10:10 17.8 22 3.34 -4.2 28 35 1022.4 0 8.4 17.7 20.1 51.7 34.3 113.5
08/05 10:00 17.9 23 3.51 -3.5 32 39 1022.4 0 8.7 17.9 20.6 53.0 36.0 119.6
08/05 09:50 17.6 23 3.45 -3.7 24 30 1022.6 0 8.6 17.9 20.5 52.7 35.5 117.8
08/05 09:40 17.7 24 3.62 -3.1 24 28 1022.4 0 8.9 18.1 21.0 54.1 37.2 123.8
08/05 09:30 17 26 3.76 -2.6 30 43 1022.2 0 9.3 18.4 21.6 55.7 39.0 130.0
08/05 09:20 16.3 26 3.61 -3.2 33 39 1022.2 0 9.0 18.4 21.3 54.9 37.7 125.5
08/05 09:10 17.1 27 3.93 -2 26 32 1022.3 0 9.6 18.6 22.1 57.1 40.7 136.2
08/05 09:00 15.8 30 4.04 -1.7 35 50 1022.1 0 9.9 19.0 22.8 58.9 42.5 142.5
08/05 08:50 16.1 31 4.25 -1 28 35 1022.2 0 10.3 19.2 23.4 60.6 44.6 150.0
08/05 08:40 15.3 35 4.57 -0.1 33 39 1022.3 0 11.0 19.8 24.7 64.0 48.6 163.9
08/05 08:30 15.3 36 4.7 0.3 35 50 1022.1 0 11.3 20.0 25.1 65.2 50.1 168.9
08/05 08:20 15.4 36 4.73 0.4 28 35 1022 0 11.3 20.0 25.2 65.4 50.3 169.9
08/05 08:10 15.1 38 4.9 0.9 33 43 1022 0 11.7 20.3 25.9 67.2 52.4 177.3
08/05 08:00 15 42 5.39 2.2 33 46 1021.8 0 12.7 21.0 27.6 71.7 58.1 197.1
08/05 07:50 14.6 44 5.51 2.5 39 46 1021.8 0 13.0 21.3 28.2 73.2 59.8 203.0
08/05 07:40 14.7 44 5.54 2.6 28 33 1021.6 0 13.1 21.3 28.2 73.4 60.0 203.9
08/05 07:30 14.5 46 5.72 3 33 50 1021.4 0 13.4 21.6 28.9 75.3 62.3 211.8
08/05 07:20 14.4 47 5.81 3.2 32 41 1021.4 0 13.6 21.7 29.3 76.2 63.4 215.8
08/05 07:10 14.2 48 5.86 3.4 26 30 1021.2 0 13.7 21.9 29.5 76.9 64.2 218.4
08/05 07:00 14 50 6.03 3.8 28 41 1020.9 0 14.1 22.1 30.2 78.7 66.3 226.0
08/05 06:50 13.8 52 6.2 4.1 24 33 1021 0 14.5 22.5 30.9 80.6 68.6 233.8
08/05 06:40 13.8 53 6.32 4.4 28 32 1020.9 0 14.7 22.6 31.3 81.7 70.0 238.9
08/05 06:30 13.9 53 6.35 4.5 28 39 1020.5 0 14.8 22.6 31.4 81.9 70.3 239.8
08/05 06:20 14.1 53 6.43 4.7 30 39 1020.5 0 15.0 22.7 31.6 82.5 71.1 242.6
08/05 06:10 14.2 53 6.47 4.8 30 35 1020.3 0 15.0 22.7 31.7 82.8 71.4 244.0
08/05 06:00 14.5 51 6.34 4.5 30 44 1020.2 0 14.7 22.5 31.1 81.2 69.6 237.6
08/05 05:50 14.7 51 6.42 4.7 32 39 1020.1 0 14.9 22.5 31.3 81.7 70.4 240.3
08/05 05:40 14.8 51 6.46 4.8 32 43 1019.9 0 15.0 22.6 31.4 82.0 70.8 241.7
08/05 05:30 15 50 6.41 4.7 32 46 1019.8 0 14.9 22.4 31.2 81.3 70.0 239.0
08/05 05:20 15 50 6.41 4.7 26 32 1019.7 0 14.9 22.4 31.2 81.3 70.0 238.9
08/05 05:10 15.2 49 6.36 4.6 28 35 1019.6 0 14.8 22.3 30.9 80.6 69.2 236.2
08/05 05:00 15.4 48 6.31 4.5 28 37 1019.4 0 14.7 22.2 30.6 79.9 68.4 233.5
08/05 04:50 15.5 47 6.21 4.2 26 32 1019.2 0 14.4 22.0 30.2 78.8 67.1 229.0
08/05 04:40 15.8 47 6.33 4.5 28 41 1019.1 0 14.7 22.1 30.5 79.7 68.3 233.1
08/05 04:30 15.9 46 6.23 4.3 28 39 1018.9 0 14.5 21.9 30.1 78.6 67.0 228.7
08/05 04:20 15.9 46 6.23 4.3 20 28 1018.7 0 14.5 21.9 30.1 78.6 67.0 228.6
08/05 04:10 16.1 45 6.17 4.2 28 32 1018.7 0 14.3 21.8 29.9 77.8 66.1 225.6
08/05 04:00 16.2 45 6.21 4.3 28 39 1018.5 0 14.4 21.8 29.9 78.1 66.5 226.9
08/05 03:50 16.4 44 6.14 4.1 28 35 1018.5 0 14.3 21.7 29.6 77.2 65.5 223.5
08/05 03:40 16.5 43 6.04 3.9 24 28 1018.5 0 14.0 21.5 29.2 76.2 64.3 219.1
08/05 03:30 16.7 43 6.11 4.1 30 41 1018.6 0 14.2 21.5 29.4 76.7 64.9 221.5
08/05 03:20 16.7 43 6.11 4.1 32 37 1018.5 0 14.2 21.5 29.4 76.7 64.9 221.4
08/05 03:10 16.6 43 6.07 4 22 26 1018.4 0 14.1 21.5 29.3 76.4 64.5 220.1
08/05 03:00 16.9 43 6.18 4.3 30 39 1018.4 0 14.3 21.6 29.6 77.1 65.6 223.7
08/05 02:50 16.8 44 6.29 4.5 26 30 1018.5 0 14.6 21.8 30.0 78.3 66.9 228.5
08/05 02:40 16.9 44 6.33 4.6 24 30 1018.4 0 14.6 21.8 30.1 78.5 67.3 229.9
08/05 02:30 17.1 43 6.26 4.4 30 39 1018.1 0 14.5 21.6 29.8 77.7 66.3 226.4
08/05 02:20 17.2 44 6.44 4.9 26 30 1018.2 0 14.9 21.9 30.4 79.3 68.3 233.5
08/05 02:10 17.4 43 6.37 4.7 28 33 1018.3 0 14.7 21.7 30.1 78.4 67.4 230.1
08/05 02:00 17.5 43 6.41 4.8 24 33 1018.3 0 14.8 21.8 30.2 78.7 67.7 231.4
08/05 01:50 17.7 42 6.34 4.6 20 26 1018.3 0 14.6 21.6 29.9 77.9 66.8 228.0
08/05 01:40 17.9 42 6.41 4.8 24 30 1018.3 0 14.8 21.7 30.0 78.3 67.4 230.3
08/05 01:30 18 42 6.45 4.9 24 33 1018.3 0 14.9 21.7 30.1 78.6 67.8 231.6
08/05 01:20 18.2 41 6.37 4.7 24 28 1018.2 0 14.7 21.6 29.8 77.7 66.7 227.8
08/05 01:10 18.4 41 6.45 4.9 28 32 1018.2 0 14.8 21.6 30.0 78.2 67.4 230.5
08/05 01:00 18.5 41 6.49 5 28 39 1018.1 0 14.9 21.6 30.1 78.5 67.8 231.8
08/05 00:50 18.4 42 6.61 5.3 30 39 1018.3 0 15.2 21.8 30.5 79.7 69.3 237.0
08/05 00:40 18.6 42 6.68 5.5 26 33 1018.4 0 15.3 21.9 30.7 80.2 69.9 239.2
08/05 00:30 18.9 42 6.8 5.7 28 41 1018.4 0 15.6 22.0 31.0 81.0 71.1 243.2
08/05 00:20 18.8 43 6.92 6 24 30 1018.3 0 15.8 22.2 31.5 82.2 72.5 248.4
08/05 00:10 19 43 7.01 6.1 28 33 1018.3 0 16.0 22.3 31.7 82.9 73.4 251.5
08/05 00:00 19.3 42 6.97 6.1 28 43 1018.1 0 15.9 22.1 31.5 82.2 72.6 248.9
07/05 23:50 19.3 41 6.8 5.7 22 26 1018.3 0 15.5 21.9 30.9 80.6 70.7 242.0
07/05 23:40 19.7 40 6.79 5.7 28 32 1018.4 0 15.5 21.8 30.7 80.1 70.2 240.4
07/05 23:30 20 39 6.74 5.6 30 48 1018.4 0 15.4 21.7 30.4 79.4 69.4 237.6
07/05 23:20 20 42 7.26 6.7 24 28 1018.4 0 16.5 22.4 32.2 84.2 75.4 258.5
07/05 23:10 20.2 42 7.34 6.9 28 32 1018.4 0 16.6 22.5 32.4 84.8 76.1 261.2
07/05 23:00 20.3 42 7.39 7 24 33 1018.3 0 16.7 22.5 32.6 85.1 76.6 262.9
07/05 22:50 20.3 42 7.39 7 24 32 1018.3 0 16.7 22.5 32.6 85.1 76.6 262.9
07/05 22:40 20.3 43 7.56 7.3 22 26 1018.4 0 17.1 22.7 33.2 86.7 78.6 269.8
07/05 22:30 20.3 43 7.56 7.3 24 33 1018.4 0 17.1 22.7 33.2 86.7 78.6 269.8
07/05 22:20 20.4 43 7.61 7.4 24 30 1018.5 0 17.2 22.8 33.3 87.1 79.1 271.6
07/05 22:10 20.5 43 7.65 7.5 28 35 1018.5 0 17.3 22.8 33.4 87.4 79.4 272.9
07/05 22:00 20.5 44 7.83 7.8 20 28 1018.6 0 17.6 23.1 34.0 89.1 81.6 280.3
07/05 21:50 20.5 44 7.83 7.8 19 22 1018.6 0 17.6 23.1 34.0 89.1 81.6 280.3
07/05 21:40 20.7 44 7.92 8 26 28 1018.7 0 17.8 23.2 34.3 89.7 82.4 283.3
07/05 21:30 20.7 45 8.1 8.4 19 26 1018.7 0 18.2 23.4 34.9 91.5 84.6 290.8
07/05 21:20 20.8 45 8.15 8.4 22 26 1018.6 0 18.3 23.5 35.1 91.8 85.0 292.5
07/05 21:10 20.9 44 8.01 8.2 19 22 1018.6 0 18.0 23.3 34.5 90.4 83.3 286.3
07/05 21:00 21.1 43 7.92 8 17 22 1018.7 0 17.8 23.1 34.1 89.3 82.0 281.9
07/05 20:50 21.2 42 7.78 7.8 15 19 1018.6 0 17.5 22.8 33.6 87.9 80.3 275.8
07/05 20:40 21.3 41 7.64 7.5 15 17 1018.5 0 17.2 22.6 33.0 86.4 78.5 269.8
07/05 20:30 21.5 40 7.54 7.3 17 26 1018.4 0 17.0 22.4 32.6 85.3 77.2 265.1
07/05 20:20 21.5 40 7.54 7.3 19 20 1018.4 0 17.0 22.4 32.6 85.3 77.2 265.1
07/05 20:10 21.5 40 7.54 7.3 19 22 1018.4 0 17.0 22.4 32.6 85.3 77.2 265.1

Last Refresh: 08-May-2026 12:10:11

Bureau of Meteorology